Giovedì 14 Nov 2019 Home 
MX of N - MX1 Risultati qualifiche [17-09-11 20:50 by staff GoNBike.com] 

Qualifying Heat MX1 - Classification

Pos Nr Rider Nat. Fed. Bike Time laps Diff. First Diff. Prev. Bestlaptime in lap Speed

1 1 Dungey, Ryan USA AMA Suzuki 23:46.461 14 0:00.000 0:00.000 1:37.780 9 55.226
2 13 Cairoli, Antonio ITA FMI KTM 23:47.769 14 0:01.308 0:01.308 1:38.006 8 55.099
3 19 Pourcel, Christophe FRA FFM Kawasaki 24:32.886 14 0:46.425 0:45.117 1:38.291 7 54.939
4 16 Reed, Chad AUS MA Honda 24:39.239 14 0:52.778 0:06.353 1:40.981 8 53.475
5 116 Rattray, Tyla RSA MSA Kawasaki 24:41.125 14 0:54.664 0:01.886 1:41.756 8 53.068
6 25 Goncalves, Rui POR FMP Honda 24:45.760 14 0:59.299 0:04.635 1:41.124 4 53.4
7 43 Leok, Tanel EST EMF TM 24:47.858 14 1:01.397 0:02.098 1:41.579 5 53.161
8 113 Bobryshev, Evgeny RUS MFR Honda 24:48.031 14 1:01.570 0:00.173 1:41.290 5 53.312
9 10 Searle, Tommy GBR ACU Kawasaki 25:15.711 14 1:29.250 0:27.680 1:40.447 7 53.76
10 37 Barragan, Jonathan ESP RFME Kawasaki 25:18.531 14 1:32.070 0:02.820 1:43.467 4 52.191
11 55 Atsuta, Yoshitaka JPN MFJ Suzuki 25:20.715 14 1:34.254 0:02.184 1:44.079 6 51.884
12 40 Pyrhönen, Antti FIN SML Honda 23:49.717 13 1 lap 1 lap 1:44.407 6 51.721
13 34 Schmidinger, Günter AUT OeAMTC Honda 23:54.054 13 1 lap 0:04.337 1:44.847 7 51.504
14 125 Neugebauer, Filip CZE DMSB Kawasaki 23:57.058 13 1 lap 0:03.004 1:44.942 6 51.457
15 52 Ferreira de Lima, Marcello BRA CBM Kawasaki 23:58.497 13 1 lap 0:01.439 1:45.160 6 51.35
16 4 Van Daele, Marvin BEL FMB Honda 23:58.754 13 1 lap 0:00.257 1:44.835 7 51.51
17 58 Barr, Martin IRL MCUI KTM 24:03.554 13 1 lap 0:04.800 1:44.387 10 51.731
18 110 Brakke, Herjan NED KNMV Yamaha 24:12.612 13 1 lap 0:09.058 1:46.175 10 50.859
19 7 Siegl, Daniel GER DMSB KTM 24:14.533 13 1 lap 0:01.921 1:45.831 5 51.025
20 119 Hansen, Nicolai DEN DMU Suzuki 24:19.849 13 1 lap 0:05.316 1:47.763 8 50.11
21 49 Freibergs, Lauris LAT LAMSF Honda 24:21.042 13 1 lap 0:01.193 1:46.328 10 50.786
22 128 Mulec, Toni SLO AMZS Suzuki 24:41.782 13 1 lap 0:20.740 1:48.191 7 49.912
23 122 Sipek, Nenad CRO HMS Yamaha 24:44.242 13 1 lap 0:02.460 1:48.519 5 49.761
24 31 Furlato, Yves SUI FMS Kawasaki 25:00.154 13 1 lap 0:15.912 1:48.571 5 49.737
25 82 Gelazninkas, Arunas LTU LMSF Kawasaki 25:13.942 13 1 lap 0:13.788 1:49.334 6 49.39
26 22 Doeksen, Joel NZL MNZ KTM 25:30.181 13 1 lap 0:16.239 1:50.554 6 48.845
27 67 Martin, Humberto VEN FMV Honda 25:38.953 13 1 lap 0:08.772 1:50.977 5 48.659
28 88 Gudbergsson, Viktor ISL MSI Suzuki 23:53.174 12 2 laps 1 lap 1:52.778 4 47.882
29 131 Siafarikas, Vasilis GRE ELPA Honda 25:43.690 12 2 laps 1:50.516 1:58.817 11 45.448
30 104 Ruadreo, Atison THA FMSCT Yamaha 25:52.014 12 2 laps 0:08.324 1:59.120 3 45.332
31 28 Grana, Luis M. PUR FMPR Yamaha 23:46.570 11 3 laps 1 lap 1:59.144 1 45.323
32 107 Xu, Jianhao CHN CMSA Honda 23:51.853 11 3 laps 0:05.283 2:01.758 3 44.35
33 64 Noren, Fredrik SWE SVEMO Honda 16:43.817 9 5 laps 2 laps 1:44.651 6 51.6
34 73 Morozov, Roman UKR FMU Kawasaki 8:22.024 4 10 laps 5 laps 1:51.632 3 48.373
35 134 Abou, Meshari KUW KIAC Suzuki 3:53.518 1 13 laps 3 laps 3:03.851 1 29.372
36 101 Nyegaard, Remi NOR NMF Yamaha 0:00.000 0 14 laps 1 lap 0:00.000 0 0

::youthstream::




Visualizza tutte le newsArchivio Cerca un termine nelle newsCerca Leggi le news più recentiPiù recenti   Versione stampabileStampa 
Notizia precedente
MX of N - Cairoli straordinario in qualifica MX1
Notizia successiva
MX of N - MX2 Risultati qualifiche